sensor_id;sensor_type;location;lat;lon;timestamp;P1;durP1;ratioP1;P2;durP2;ratioP2
72037;SDS011;59900;50.788;12.904;2023-06-22T00:02:16;12.52;;;7.30;;
72037;SDS011;59900;50.788;12.904;2023-06-22T00:04:42;13.10;;;7.40;;
72037;SDS011;59900;50.788;12.904;2023-06-22T00:07:07;15.38;;;7.50;;
72037;SDS011;59900;50.788;12.904;2023-06-22T00:09:33;13.37;;;7.83;;
72037;SDS011;59900;50.788;12.904;2023-06-22T00:11:58;13.53;;;8.07;;
72037;SDS011;59900;50.788;12.904;2023-06-22T00:14:24;12.03;;;7.67;;
72037;SDS011;59900;50.788;12.904;2023-06-22T00:16:49;17.00;;;7.67;;
72037;SDS011;59900;50.788;12.904;2023-06-22T00:19:19;12.57;;;7.50;;
72037;SDS011;59900;50.788;12.904;2023-06-22T00:21:46;13.60;;;6.93;;
72037;SDS011;59900;50.788;12.904;2023-06-22T00:24:11;13.87;;;7.67;;
72037;SDS011;59900;50.788;12.904;2023-06-22T00:26:37;12.60;;;7.27;;
72037;SDS011;59900;50.788;12.904;2023-06-22T00:29:02;12.77;;;7.87;;
72037;SDS011;59900;50.788;12.904;2023-06-22T00:31:27;12.03;;;7.27;;
72037;SDS011;59900;50.788;12.904;2023-06-22T00:33:52;12.20;;;7.50;;
72037;SDS011;59900;50.788;12.904;2023-06-22T00:36:18;12.90;;;7.77;;
72037;SDS011;59900;50.788;12.904;2023-06-22T00:38:44;13.43;;;7.45;;
72037;SDS011;59900;50.788;12.904;2023-06-22T00:41:09;14.20;;;7.50;;
72037;SDS011;59900;50.788;12.904;2023-06-22T00:43:34;13.37;;;7.83;;
72037;SDS011;59900;50.788;12.904;2023-06-22T00:46:00;13.63;;;7.20;;
72037;SDS011;59900;50.788;12.904;2023-06-22T00:48:25;13.47;;;8.43;;
72037;SDS011;59900;50.788;12.904;2023-06-22T00:50:50;12.15;;;7.57;;
72037;SDS011;59900;50.788;12.904;2023-06-22T00:53:18;13.87;;;7.23;;
72037;SDS011;59900;50.788;12.904;2023-06-22T00:55:44;12.68;;;7.43;;
72037;SDS011;59900;50.788;12.904;2023-06-22T00:58:16;13.60;;;8.00;;
72037;SDS011;59900;50.788;12.904;2023-06-22T01:00:42;11.02;;;7.57;;
72037;SDS011;59900;50.788;12.904;2023-06-22T01:03:07;14.40;;;7.30;;
72037;SDS011;59900;50.788;12.904;2023-06-22T01:05:36;15.48;;;8.25;;
72037;SDS011;59900;50.788;12.904;2023-06-22T01:13:06;13.07;;;7.47;;
72037;SDS011;59900;50.788;12.904;2023-06-22T01:15:40;12.02;;;7.60;;
72037;SDS011;59900;50.788;12.904;2023-06-22T01:18:17;11.35;;;6.93;;
72037;SDS011;59900;50.788;12.904;2023-06-22T01:20:43;12.85;;;7.35;;
72037;SDS011;59900;50.788;12.904;2023-06-22T01:25:53;11.63;;;7.03;;
72037;SDS011;59900;50.788;12.904;2023-06-22T01:28:46;10.93;;;7.43;;
72037;SDS011;59900;50.788;12.904;2023-06-22T01:31:18;12.95;;;7.63;;
72037;SDS011;59900;50.788;12.904;2023-06-22T01:33:49;12.55;;;6.93;;
72037;SDS011;59900;50.788;12.904;2023-06-22T01:36:17;13.73;;;7.87;;
72037;SDS011;59900;50.788;12.904;2023-06-22T01:38:43;16.98;;;8.63;;
72037;SDS011;59900;50.788;12.904;2023-06-22T01:41:10;11.52;;;7.82;;
72037;SDS011;59900;50.788;12.904;2023-06-22T01:43:35;12.93;;;7.65;;
72037;SDS011;59900;50.788;12.904;2023-06-22T01:46:02;13.20;;;7.67;;
72037;SDS011;59900;50.788;12.904;2023-06-22T01:48:29;11.88;;;7.28;;
72037;SDS011;59900;50.788;12.904;2023-06-22T01:50:55;11.77;;;7.43;;
72037;SDS011;59900;50.788;12.904;2023-06-22T01:53:22;13.43;;;7.63;;
72037;SDS011;59900;50.788;12.904;2023-06-22T01:55:48;12.00;;;7.45;;
72037;SDS011;59900;50.788;12.904;2023-06-22T01:58:13;12.70;;;7.57;;
72037;SDS011;59900;50.788;12.904;2023-06-22T02:00:39;11.90;;;7.03;;
72037;SDS011;59900;50.788;12.904;2023-06-22T02:03:10;11.15;;;7.75;;
72037;SDS011;59900;50.788;12.904;2023-06-22T02:05:39;11.75;;;7.03;;
72037;SDS011;59900;50.788;12.904;2023-06-22T02:08:22;12.27;;;8.13;;
72037;SDS011;59900;50.788;12.904;2023-06-22T02:10:50;11.63;;;7.90;;
72037;SDS011;59900;50.788;12.904;2023-06-22T02:13:17;13.77;;;7.72;;
72037;SDS011;59900;50.788;12.904;2023-06-22T02:15:43;12.40;;;7.45;;
72037;SDS011;59900;50.788;12.904;2023-06-22T02:18:08;13.17;;;7.97;;
72037;SDS011;59900;50.788;12.904;2023-06-22T02:20:37;13.67;;;7.80;;
72037;SDS011;59900;50.788;12.904;2023-06-22T02:23:03;14.65;;;7.72;;
72037;SDS011;59900;50.788;12.904;2023-06-22T02:25:28;13.43;;;7.60;;
72037;SDS011;59900;50.788;12.904;2023-06-22T02:27:53;13.10;;;8.00;;
72037;SDS011;59900;50.788;12.904;2023-06-22T02:30:19;11.70;;;7.53;;
72037;SDS011;59900;50.788;12.904;2023-06-22T02:32:44;12.27;;;8.03;;
72037;SDS011;59900;50.788;12.904;2023-06-22T02:35:09;12.07;;;7.50;;
72037;SDS011;59900;50.788;12.904;2023-06-22T02:37:35;14.73;;;7.93;;
72037;SDS011;59900;50.788;12.904;2023-06-22T02:40:07;11.55;;;7.10;;
72037;SDS011;59900;50.788;12.904;2023-06-22T02:42:34;12.25;;;7.10;;
72037;SDS011;59900;50.788;12.904;2023-06-22T02:44:59;11.73;;;7.47;;
72037;SDS011;59900;50.788;12.904;2023-06-22T02:47:25;13.03;;;7.73;;
72037;SDS011;59900;50.788;12.904;2023-06-22T02:49:50;14.27;;;7.97;;
72037;SDS011;59900;50.788;12.904;2023-06-22T02:52:16;14.13;;;7.43;;
72037;SDS011;59900;50.788;12.904;2023-06-22T02:54:41;11.73;;;7.50;;
72037;SDS011;59900;50.788;12.904;2023-06-22T02:57:06;11.57;;;7.83;;
72037;SDS011;59900;50.788;12.904;2023-06-22T02:59:31;12.67;;;7.57;;
72037;SDS011;59900;50.788;12.904;2023-06-22T03:01:57;16.40;;;8.00;;
72037;SDS011;59900;50.788;12.904;2023-06-22T03:04:22;13.20;;;7.40;;
72037;SDS011;59900;50.788;12.904;2023-06-22T03:06:47;13.27;;;8.17;;
72037;SDS011;59900;50.788;12.904;2023-06-22T03:09:16;11.50;;;8.02;;
72037;SDS011;59900;50.788;12.904;2023-06-22T03:11:41;14.30;;;8.13;;
72037;SDS011;59900;50.788;12.904;2023-06-22T03:14:06;16.33;;;8.50;;
72037;SDS011;59900;50.788;12.904;2023-06-22T03:16:32;13.30;;;8.13;;
72037;SDS011;59900;50.788;12.904;2023-06-22T03:18:58;12.73;;;7.88;;
72037;SDS011;59900;50.788;12.904;2023-06-22T03:21:24;13.10;;;8.00;;
72037;SDS011;59900;50.788;12.904;2023-06-22T03:23:52;13.07;;;7.85;;
72037;SDS011;59900;50.788;12.904;2023-06-22T03:26:17;13.27;;;7.80;;
72037;SDS011;59900;50.788;12.904;2023-06-22T03:28:43;13.73;;;8.40;;
72037;SDS011;59900;50.788;12.904;2023-06-22T03:31:08;12.80;;;8.47;;
72037;SDS011;59900;50.788;12.904;2023-06-22T03:33:33;14.20;;;8.60;;
72037;SDS011;59900;50.788;12.904;2023-06-22T03:35:59;12.53;;;7.90;;
72037;SDS011;59900;50.788;12.904;2023-06-22T03:38:24;15.87;;;7.93;;
72037;SDS011;59900;50.788;12.904;2023-06-22T03:40:49;16.00;;;8.60;;
72037;SDS011;59900;50.788;12.904;2023-06-22T03:43:14;13.73;;;8.43;;
72037;SDS011;59900;50.788;12.904;2023-06-22T03:45:40;13.20;;;7.80;;
72037;SDS011;59900;50.788;12.904;2023-06-22T03:48:05;13.40;;;7.93;;
72037;SDS011;59900;50.788;12.904;2023-06-22T03:50:30;14.33;;;8.37;;
72037;SDS011;59900;50.788;12.904;2023-06-22T03:52:56;14.23;;;7.80;;
72037;SDS011;59900;50.788;12.904;2023-06-22T03:55:21;14.83;;;8.30;;
72037;SDS011;59900;50.788;12.904;2023-06-22T03:57:46;16.37;;;8.70;;
72037;SDS011;59900;50.788;12.904;2023-06-22T04:00:11;14.37;;;8.93;;
72037;SDS011;59900;50.788;12.904;2023-06-22T04:02:37;14.75;;;8.63;;
72037;SDS011;59900;50.788;12.904;2023-06-22T04:05:03;14.43;;;8.90;;
72037;SDS011;59900;50.788;12.904;2023-06-22T04:07:28;13.25;;;8.10;;
72037;SDS011;59900;50.788;12.904;2023-06-22T04:09:53;14.93;;;8.40;;
72037;SDS011;59900;50.788;12.904;2023-06-22T04:12:19;14.17;;;7.90;;
72037;SDS011;59900;50.788;12.904;2023-06-22T04:14:44;14.57;;;8.13;;
72037;SDS011;59900;50.788;12.904;2023-06-22T04:17:09;13.10;;;8.03;;
72037;SDS011;59900;50.788;12.904;2023-06-22T04:19:34;14.70;;;7.30;;
72037;SDS011;59900;50.788;12.904;2023-06-22T04:22:00;12.70;;;7.77;;
72037;SDS011;59900;50.788;12.904;2023-06-22T04:24:25;15.17;;;7.67;;
72037;SDS011;59900;50.788;12.904;2023-06-22T04:26:50;15.60;;;7.53;;
72037;SDS011;59900;50.788;12.904;2023-06-22T04:29:19;14.07;;;8.15;;
72037;SDS011;59900;50.788;12.904;2023-06-22T04:31:45;13.10;;;7.85;;
72037;SDS011;59900;50.788;12.904;2023-06-22T04:34:15;12.45;;;7.32;;
72037;SDS011;59900;50.788;12.904;2023-06-22T04:36:41;11.77;;;7.35;;
72037;SDS011;59900;50.788;12.904;2023-06-22T04:39:07;14.67;;;7.73;;
72037;SDS011;59900;50.788;12.904;2023-06-22T04:41:35;13.73;;;7.23;;
72037;SDS011;59900;50.788;12.904;2023-06-22T04:44:13;11.93;;;7.50;;
72037;SDS011;59900;50.788;12.904;2023-06-22T04:46:48;12.50;;;7.80;;
72037;SDS011;59900;50.788;12.904;2023-06-22T04:49:18;12.45;;;7.43;;
72037;SDS011;59900;50.788;12.904;2023-06-22T04:51:44;16.08;;;7.75;;
72037;SDS011;59900;50.788;12.904;2023-06-22T04:54:10;12.50;;;7.43;;
72037;SDS011;59900;50.788;12.904;2023-06-22T04:56:35;14.90;;;8.03;;
72037;SDS011;59900;50.788;12.904;2023-06-22T04:59:00;14.03;;;8.30;;
72037;SDS011;59900;50.788;12.904;2023-06-22T05:01:26;12.37;;;7.63;;
72037;SDS011;59900;50.788;12.904;2023-06-22T05:03:51;19.15;;;8.85;;
72037;SDS011;59900;50.788;12.904;2023-06-22T05:06:25;23.25;;;9.07;;
72037;SDS011;59900;50.788;12.904;2023-06-22T05:08:53;20.80;;;9.70;;
72037;SDS011;59900;50.788;12.904;2023-06-22T05:11:22;22.63;;;9.10;;
72037;SDS011;59900;50.788;12.904;2023-06-22T05:13:48;23.48;;;9.40;;
72037;SDS011;59900;50.788;12.904;2023-06-22T05:16:13;19.67;;;9.17;;
72037;SDS011;59900;50.788;12.904;2023-06-22T05:18:38;14.57;;;8.80;;
72037;SDS011;59900;50.788;12.904;2023-06-22T05:21:04;17.90;;;9.40;;
72037;SDS011;59900;50.788;12.904;2023-06-22T05:23:29;17.60;;;8.93;;
72037;SDS011;59900;50.788;12.904;2023-06-22T05:25:54;16.20;;;9.10;;
72037;SDS011;59900;50.788;12.904;2023-06-22T05:28:22;16.30;;;9.38;;
72037;SDS011;59900;50.788;12.904;2023-06-22T05:30:49;19.65;;;8.95;;
72037;SDS011;59900;50.788;12.904;2023-06-22T05:33:14;13.73;;;8.67;;
72037;SDS011;59900;50.788;12.904;2023-06-22T05:35:39;16.60;;;8.87;;
72037;SDS011;59900;50.788;12.904;2023-06-22T05:38:05;15.17;;;8.70;;
72037;SDS011;59900;50.788;12.904;2023-06-22T05:40:30;17.43;;;8.50;;
72037;SDS011;59900;50.788;12.904;2023-06-22T05:42:55;14.40;;;7.87;;
72037;SDS011;59900;50.788;12.904;2023-06-22T05:45:20;15.87;;;8.50;;
72037;SDS011;59900;50.788;12.904;2023-06-22T05:47:46;12.77;;;7.67;;
72037;SDS011;59900;50.788;12.904;2023-06-22T05:50:11;13.60;;;7.43;;
72037;SDS011;59900;50.788;12.904;2023-06-22T05:52:36;14.20;;;7.07;;
72037;SDS011;59900;50.788;12.904;2023-06-22T05:55:02;11.37;;;6.80;;
72037;SDS011;59900;50.788;12.904;2023-06-22T05:57:27;11.20;;;6.70;;
72037;SDS011;59900;50.788;12.904;2023-06-22T05:59:53;13.13;;;6.70;;
72037;SDS011;59900;50.788;12.904;2023-06-22T06:02:18;11.20;;;6.50;;
72037;SDS011;59900;50.788;12.904;2023-06-22T06:04:44;11.25;;;6.93;;
72037;SDS011;59900;50.788;12.904;2023-06-22T06:07:09;12.93;;;7.80;;
72037;SDS011;59900;50.788;12.904;2023-06-22T06:09:34;17.20;;;8.33;;
72037;SDS011;59900;50.788;12.904;2023-06-22T06:12:00;12.37;;;7.87;;
72037;SDS011;59900;50.788;12.904;2023-06-22T06:14:27;16.15;;;7.70;;
72037;SDS011;59900;50.788;12.904;2023-06-22T06:16:53;14.57;;;7.80;;
72037;SDS011;59900;50.788;12.904;2023-06-22T06:19:18;12.10;;;7.83;;
72037;SDS011;59900;50.788;12.904;2023-06-22T06:21:43;13.83;;;7.93;;
72037;SDS011;59900;50.788;12.904;2023-06-22T06:24:08;13.57;;;8.13;;
72037;SDS011;59900;50.788;12.904;2023-06-22T06:26:34;12.23;;;7.73;;
72037;SDS011;59900;50.788;12.904;2023-06-22T06:28:59;11.65;;;7.95;;
72037;SDS011;59900;50.788;12.904;2023-06-22T06:31:25;11.83;;;7.97;;
72037;SDS011;59900;50.788;12.904;2023-06-22T06:33:53;13.57;;;8.20;;
72037;SDS011;59900;50.788;12.904;2023-06-22T06:36:19;11.83;;;7.70;;
72037;SDS011;59900;50.788;12.904;2023-06-22T06:38:44;12.07;;;7.47;;
72037;SDS011;59900;50.788;12.904;2023-06-22T06:41:11;11.80;;;8.13;;
72037;SDS011;59900;50.788;12.904;2023-06-22T06:43:37;14.07;;;7.77;;
72037;SDS011;59900;50.788;12.904;2023-06-22T06:46:02;13.63;;;7.43;;
72037;SDS011;59900;50.788;12.904;2023-06-22T06:48:28;12.30;;;7.07;;
72037;SDS011;59900;50.788;12.904;2023-06-22T06:50:53;12.23;;;7.60;;
72037;SDS011;59900;50.788;12.904;2023-06-22T06:53:18;13.40;;;6.85;;
72037;SDS011;59900;50.788;12.904;2023-06-22T06:55:44;12.37;;;7.73;;
72037;SDS011;59900;50.788;12.904;2023-06-22T06:58:10;10.77;;;6.97;;
72037;SDS011;59900;50.788;12.904;2023-06-22T07:00:38;10.80;;;7.30;;
72037;SDS011;59900;50.788;12.904;2023-06-22T07:03:03;11.33;;;7.10;;
72037;SDS011;59900;50.788;12.904;2023-06-22T07:05:28;13.55;;;7.38;;
72037;SDS011;59900;50.788;12.904;2023-06-22T07:07:53;10.37;;;7.10;;
72037;SDS011;59900;50.788;12.904;2023-06-22T07:10:19;9.33;;;6.47;;
72037;SDS011;59900;50.788;12.904;2023-06-22T07:12:44;10.93;;;7.27;;
72037;SDS011;59900;50.788;12.904;2023-06-22T07:15:09;15.30;;;7.03;;
72037;SDS011;59900;50.788;12.904;2023-06-22T07:17:36;11.57;;;7.35;;
72037;SDS011;59900;50.788;12.904;2023-06-22T07:20:02;11.73;;;7.57;;
72037;SDS011;59900;50.788;12.904;2023-06-22T07:22:33;11.18;;;7.55;;
72037;SDS011;59900;50.788;12.904;2023-06-22T07:24:58;11.10;;;6.80;;
72037;SDS011;59900;50.788;12.904;2023-06-22T07:27:23;9.80;;;6.83;;
72037;SDS011;59900;50.788;12.904;2023-06-22T07:29:49;11.25;;;7.22;;
72037;SDS011;59900;50.788;12.904;2023-06-22T07:32:15;10.43;;;7.07;;
72037;SDS011;59900;50.788;12.904;2023-06-22T07:34:40;13.13;;;7.30;;
72037;SDS011;59900;50.788;12.904;2023-06-22T07:37:06;11.77;;;7.67;;
72037;SDS011;59900;50.788;12.904;2023-06-22T07:39:31;11.47;;;7.50;;
72037;SDS011;59900;50.788;12.904;2023-06-22T07:41:56;9.30;;;6.33;;
72037;SDS011;59900;50.788;12.904;2023-06-22T07:44:22;10.27;;;6.50;;
72037;SDS011;59900;50.788;12.904;2023-06-22T07:46:47;10.10;;;6.90;;
72037;SDS011;59900;50.788;12.904;2023-06-22T07:49:12;12.17;;;7.43;;
72037;SDS011;59900;50.788;12.904;2023-06-22T07:51:37;10.13;;;6.80;;
72037;SDS011;59900;50.788;12.904;2023-06-22T07:54:03;10.80;;;6.57;;
72037;SDS011;59900;50.788;12.904;2023-06-22T07:56:28;10.73;;;7.40;;
72037;SDS011;59900;50.788;12.904;2023-06-22T07:58:53;10.37;;;6.50;;
72037;SDS011;59900;50.788;12.904;2023-06-22T08:01:19;10.48;;;6.57;;
72037;SDS011;59900;50.788;12.904;2023-06-22T08:03:47;9.97;;;6.73;;
72037;SDS011;59900;50.788;12.904;2023-06-22T08:06:15;11.23;;;6.47;;
72037;SDS011;59900;50.788;12.904;2023-06-22T08:08:41;10.10;;;6.30;;
72037;SDS011;59900;50.788;12.904;2023-06-22T08:11:07;10.70;;;6.88;;
72037;SDS011;59900;50.788;12.904;2023-06-22T08:13:32;10.47;;;7.60;;
72037;SDS011;59900;50.788;12.904;2023-06-22T08:15:58;10.03;;;6.90;;
72037;SDS011;59900;50.788;12.904;2023-06-22T08:18:23;9.77;;;6.50;;
72037;SDS011;59900;50.788;12.904;2023-06-22T08:20:49;10.03;;;7.00;;
72037;SDS011;59900;50.788;12.904;2023-06-22T08:23:14;10.30;;;6.77;;
72037;SDS011;59900;50.788;12.904;2023-06-22T08:25:39;12.40;;;6.93;;
72037;SDS011;59900;50.788;12.904;2023-06-22T08:28:05;11.03;;;6.43;;
72037;SDS011;59900;50.788;12.904;2023-06-22T08:30:30;11.07;;;6.43;;
72037;SDS011;59900;50.788;12.904;2023-06-22T08:32:55;9.57;;;6.27;;
72037;SDS011;59900;50.788;12.904;2023-06-22T08:35:24;9.90;;;6.53;;
72037;SDS011;59900;50.788;12.904;2023-06-22T08:37:49;9.90;;;6.32;;
72037;SDS011;59900;50.788;12.904;2023-06-22T08:40:19;10.77;;;7.43;;
72037;SDS011;59900;50.788;12.904;2023-06-22T08:42:45;10.03;;;6.20;;
72037;SDS011;59900;50.788;12.904;2023-06-22T08:45:12;8.27;;;5.60;;
72037;SDS011;59900;50.788;12.904;2023-06-22T08:47:38;9.13;;;5.68;;
72037;SDS011;59900;50.788;12.904;2023-06-22T08:50:03;10.10;;;6.07;;
72037;SDS011;59900;50.788;12.904;2023-06-22T08:52:29;10.27;;;5.68;;
72037;SDS011;59900;50.788;12.904;2023-06-22T08:54:55;11.30;;;5.90;;
72037;SDS011;59900;50.788;12.904;2023-06-22T08:57:21;10.23;;;5.82;;
72037;SDS011;59900;50.788;12.904;2023-06-22T08:59:46;9.97;;;6.13;;
72037;SDS011;59900;50.788;12.904;2023-06-22T09:02:11;10.20;;;6.13;;
72037;SDS011;59900;50.788;12.904;2023-06-22T09:04:37;10.47;;;6.43;;
72037;SDS011;59900;50.788;12.904;2023-06-22T09:07:02;9.60;;;5.60;;
72037;SDS011;59900;50.788;12.904;2023-06-22T09:09:28;9.93;;;5.90;;
72037;SDS011;59900;50.788;12.904;2023-06-22T09:11:53;9.07;;;5.80;;
72037;SDS011;59900;50.788;12.904;2023-06-22T09:14:18;9.63;;;6.33;;
72037;SDS011;59900;50.788;12.904;2023-06-22T09:16:44;9.37;;;5.80;;
72037;SDS011;59900;50.788;12.904;2023-06-22T09:19:09;10.07;;;6.20;;
72037;SDS011;59900;50.788;12.904;2023-06-22T09:21:34;9.83;;;6.37;;
72037;SDS011;59900;50.788;12.904;2023-06-22T09:23:59;9.40;;;6.20;;
72037;SDS011;59900;50.788;12.904;2023-06-22T09:26:25;9.70;;;6.67;;
72037;SDS011;59900;50.788;12.904;2023-06-22T09:28:50;10.07;;;6.60;;
72037;SDS011;59900;50.788;12.904;2023-06-22T09:31:15;9.37;;;6.37;;
72037;SDS011;59900;50.788;12.904;2023-06-22T09:33:41;9.43;;;6.37;;
72037;SDS011;59900;50.788;12.904;2023-06-22T09:36:07;10.43;;;6.07;;
72037;SDS011;59900;50.788;12.904;2023-06-22T09:38:38;10.67;;;6.63;;
72037;SDS011;59900;50.788;12.904;2023-06-22T09:41:04;11.30;;;6.93;;
72037;SDS011;59900;50.788;12.904;2023-06-22T09:43:30;10.87;;;6.77;;
72037;SDS011;59900;50.788;12.904;2023-06-22T09:45:57;11.27;;;6.70;;
72037;SDS011;59900;50.788;12.904;2023-06-22T09:48:22;10.93;;;6.33;;
72037;SDS011;59900;50.788;12.904;2023-06-22T09:50:47;10.67;;;6.70;;
72037;SDS011;59900;50.788;12.904;2023-06-22T09:53:12;10.30;;;6.47;;
72037;SDS011;59900;50.788;12.904;2023-06-22T09:55:38;10.90;;;7.03;;
72037;SDS011;59900;50.788;12.904;2023-06-22T09:58:03;10.63;;;6.40;;
72037;SDS011;59900;50.788;12.904;2023-06-22T10:00:28;9.60;;;6.97;;
72037;SDS011;59900;50.788;12.904;2023-06-22T10:02:53;11.20;;;6.87;;
72037;SDS011;59900;50.788;12.904;2023-06-22T10:05:20;10.63;;;7.17;;
72037;SDS011;59900;50.788;12.904;2023-06-22T10:07:46;10.80;;;6.95;;
72037;SDS011;59900;50.788;12.904;2023-06-22T10:10:11;14.57;;;7.47;;
72037;SDS011;59900;50.788;12.904;2023-06-22T10:12:40;10.95;;;7.13;;
72037;SDS011;59900;50.788;12.904;2023-06-22T10:15:11;12.50;;;7.23;;
72037;SDS011;59900;50.788;12.904;2023-06-22T10:17:36;10.07;;;6.72;;
72037;SDS011;59900;50.788;12.904;2023-06-22T10:20:02;17.27;;;6.70;;
72037;SDS011;59900;50.788;12.904;2023-06-22T10:22:31;11.27;;;6.82;;
72037;SDS011;59900;50.788;12.904;2023-06-22T10:24:57;11.23;;;7.20;;
72037;SDS011;59900;50.788;12.904;2023-06-22T10:27:22;11.17;;;6.37;;
72037;SDS011;59900;50.788;12.904;2023-06-22T10:29:47;10.53;;;6.40;;
72037;SDS011;59900;50.788;12.904;2023-06-22T10:32:12;10.70;;;6.80;;
72037;SDS011;59900;50.788;12.904;2023-06-22T10:34:38;11.50;;;6.93;;
72037;SDS011;59900;50.788;12.904;2023-06-22T10:37:03;9.83;;;6.70;;
72037;SDS011;59900;50.788;12.904;2023-06-22T10:39:28;14.15;;;6.75;;
72037;SDS011;59900;50.788;12.904;2023-06-22T10:41:54;11.27;;;6.43;;
72037;SDS011;59900;50.788;12.904;2023-06-22T10:44:20;11.40;;;6.50;;
72037;SDS011;59900;50.788;12.904;2023-06-22T10:46:45;12.50;;;6.27;;
72037;SDS011;59900;50.788;12.904;2023-06-22T10:49:11;11.47;;;6.60;;
72037;SDS011;59900;50.788;12.904;2023-06-22T10:51:36;11.50;;;6.37;;
72037;SDS011;59900;50.788;12.904;2023-06-22T10:54:01;12.67;;;8.33;;
72037;SDS011;59900;50.788;12.904;2023-06-22T10:56:26;10.03;;;6.97;;
72037;SDS011;59900;50.788;12.904;2023-06-22T10:58:52;11.33;;;7.20;;
72037;SDS011;59900;50.788;12.904;2023-06-22T11:01:17;10.33;;;7.00;;
72037;SDS011;59900;50.788;12.904;2023-06-22T11:03:42;12.77;;;6.60;;
72037;SDS011;59900;50.788;12.904;2023-06-22T11:06:07;12.23;;;6.50;;
72037;SDS011;59900;50.788;12.904;2023-06-22T11:08:32;11.83;;;7.30;;
72037;SDS011;59900;50.788;12.904;2023-06-22T11:10:58;12.00;;;7.33;;
72037;SDS011;59900;50.788;12.904;2023-06-22T11:13:23;11.07;;;6.90;;
72037;SDS011;59900;50.788;12.904;2023-06-22T11:15:50;11.60;;;7.23;;
72037;SDS011;59900;50.788;12.904;2023-06-22T11:18:15;10.27;;;6.77;;
72037;SDS011;59900;50.788;12.904;2023-06-22T11:20:40;12.97;;;6.93;;
72037;SDS011;59900;50.788;12.904;2023-06-22T11:23:05;11.60;;;6.70;;
72037;SDS011;59900;50.788;12.904;2023-06-22T11:25:31;11.70;;;6.70;;
72037;SDS011;59900;50.788;12.904;2023-06-22T11:27:56;12.40;;;8.07;;
72037;SDS011;59900;50.788;12.904;2023-06-22T11:30:22;11.57;;;6.50;;
72037;SDS011;59900;50.788;12.904;2023-06-22T11:32:48;11.73;;;7.40;;
72037;SDS011;59900;50.788;12.904;2023-06-22T11:35:13;10.90;;;6.87;;
72037;SDS011;59900;50.788;12.904;2023-06-22T11:37:38;11.18;;;6.63;;
72037;SDS011;59900;50.788;12.904;2023-06-22T11:40:03;11.60;;;6.63;;
72037;SDS011;59900;50.788;12.904;2023-06-22T11:42:30;11.77;;;6.60;;
72037;SDS011;59900;50.788;12.904;2023-06-22T11:44:55;12.07;;;6.23;;
72037;SDS011;59900;50.788;12.904;2023-06-22T11:47:20;9.37;;;6.37;;
72037;SDS011;59900;50.788;12.904;2023-06-22T11:49:46;11.27;;;6.53;;
72037;SDS011;59900;50.788;12.904;2023-06-22T11:52:11;10.63;;;6.73;;
72037;SDS011;59900;50.788;12.904;2023-06-22T11:54:37;10.27;;;6.40;;
72037;SDS011;59900;50.788;12.904;2023-06-22T11:57:03;12.52;;;6.90;;
72037;SDS011;59900;50.788;12.904;2023-06-22T11:59:29;10.20;;;6.50;;
72037;SDS011;59900;50.788;12.904;2023-06-22T12:01:54;13.30;;;7.30;;
72037;SDS011;59900;50.788;12.904;2023-06-22T12:04:19;10.47;;;6.17;;
72037;SDS011;59900;50.788;12.904;2023-06-22T12:06:45;12.33;;;6.73;;
72037;SDS011;59900;50.788;12.904;2023-06-22T12:09:10;10.50;;;6.43;;
72037;SDS011;59900;50.788;12.904;2023-06-22T12:11:35;11.10;;;6.47;;
72037;SDS011;59900;50.788;12.904;2023-06-22T12:14:01;14.07;;;6.67;;
72037;SDS011;59900;50.788;12.904;2023-06-22T12:16:27;11.33;;;6.70;;
72037;SDS011;59900;50.788;12.904;2023-06-22T12:18:53;15.02;;;6.40;;
72037;SDS011;59900;50.788;12.904;2023-06-22T12:21:18;10.87;;;6.63;;
72037;SDS011;59900;50.788;12.904;2023-06-22T12:23:44;12.95;;;7.90;;
72037;SDS011;59900;50.788;12.904;2023-06-22T12:26:09;12.10;;;7.17;;
72037;SDS011;59900;50.788;12.904;2023-06-22T12:28:34;12.27;;;6.50;;
72037;SDS011;59900;50.788;12.904;2023-06-22T12:30:59;10.70;;;6.70;;
72037;SDS011;59900;50.788;12.904;2023-06-22T12:33:25;10.20;;;6.93;;
72037;SDS011;59900;50.788;12.904;2023-06-22T12:35:50;10.80;;;7.43;;
72037;SDS011;59900;50.788;12.904;2023-06-22T12:38:15;10.63;;;6.47;;
72037;SDS011;59900;50.788;12.904;2023-06-22T12:40:40;11.73;;;7.33;;
72037;SDS011;59900;50.788;12.904;2023-06-22T12:43:06;13.07;;;7.33;;
72037;SDS011;59900;50.788;12.904;2023-06-22T12:45:32;10.90;;;7.18;;
72037;SDS011;59900;50.788;12.904;2023-06-22T12:47:58;10.23;;;7.03;;
72037;SDS011;59900;50.788;12.904;2023-06-22T12:50:24;11.55;;;7.93;;
72037;SDS011;59900;50.788;12.904;2023-06-22T12:52:50;15.97;;;7.57;;
72037;SDS011;59900;50.788;12.904;2023-06-22T12:55:15;10.20;;;6.60;;
72037;SDS011;59900;50.788;12.904;2023-06-22T12:57:40;11.03;;;6.97;;
72037;SDS011;59900;50.788;12.904;2023-06-22T13:00:05;12.80;;;7.00;;
72037;SDS011;59900;50.788;12.904;2023-06-22T13:02:33;11.10;;;7.10;;
72037;SDS011;59900;50.788;12.904;2023-06-22T13:04:58;10.57;;;7.63;;
72037;SDS011;59900;50.788;12.904;2023-06-22T13:07:23;10.07;;;7.20;;
72037;SDS011;59900;50.788;12.904;2023-06-22T13:09:49;16.37;;;7.83;;
72037;SDS011;59900;50.788;12.904;2023-06-22T13:12:17;12.50;;;7.28;;
72037;SDS011;59900;50.788;12.904;2023-06-22T13:14:43;13.45;;;6.88;;
72037;SDS011;59900;50.788;12.904;2023-06-22T13:17:08;11.80;;;7.50;;
72037;SDS011;59900;50.788;12.904;2023-06-22T13:19:33;11.57;;;7.00;;
72037;SDS011;59900;50.788;12.904;2023-06-22T13:21:59;12.40;;;7.47;;
72037;SDS011;59900;50.788;12.904;2023-06-22T13:24:24;11.70;;;7.05;;
72037;SDS011;59900;50.788;12.904;2023-06-22T13:26:50;11.77;;;7.40;;
72037;SDS011;59900;50.788;12.904;2023-06-22T13:29:15;11.67;;;7.73;;
72037;SDS011;59900;50.788;12.904;2023-06-22T13:31:40;12.00;;;7.57;;
72037;SDS011;59900;50.788;12.904;2023-06-22T13:34:05;10.70;;;7.70;;
72037;SDS011;59900;50.788;12.904;2023-06-22T13:36:31;12.15;;;7.43;;
72037;SDS011;59900;50.788;12.904;2023-06-22T13:38:57;10.63;;;7.27;;
72037;SDS011;59900;50.788;12.904;2023-06-22T13:41:22;13.13;;;7.43;;
72037;SDS011;59900;50.788;12.904;2023-06-22T13:43:47;10.67;;;7.10;;
72037;SDS011;59900;50.788;12.904;2023-06-22T13:46:12;11.27;;;6.85;;
72037;SDS011;59900;50.788;12.904;2023-06-22T13:48:38;13.27;;;7.17;;
72037;SDS011;59900;50.788;12.904;2023-06-22T13:51:03;12.67;;;6.70;;
72037;SDS011;59900;50.788;12.904;2023-06-22T13:53:28;10.73;;;6.90;;
72037;SDS011;59900;50.788;12.904;2023-06-22T13:55:53;10.23;;;7.00;;
72037;SDS011;59900;50.788;12.904;2023-06-22T13:58:19;10.63;;;7.13;;
72037;SDS011;59900;50.788;12.904;2023-06-22T14:00:47;11.02;;;6.70;;
72037;SDS011;59900;50.788;12.904;2023-06-22T14:03:14;11.65;;;6.85;;
72037;SDS011;59900;50.788;12.904;2023-06-22T14:05:40;12.57;;;6.63;;
72037;SDS011;59900;50.788;12.904;2023-06-22T14:08:06;12.23;;;7.63;;
72037;SDS011;59900;50.788;12.904;2023-06-22T14:10:31;10.73;;;6.53;;
72037;SDS011;59900;50.788;12.904;2023-06-22T14:12:56;12.37;;;6.47;;
72037;SDS011;59900;50.788;12.904;2023-06-22T14:15:25;11.82;;;6.53;;
72037;SDS011;59900;50.788;12.904;2023-06-22T14:17:50;11.77;;;7.20;;
72037;SDS011;59900;50.788;12.904;2023-06-22T14:20:15;10.70;;;6.20;;
72037;SDS011;59900;50.788;12.904;2023-06-22T14:22:41;10.83;;;6.70;;
72037;SDS011;59900;50.788;12.904;2023-06-22T14:25:07;14.70;;;6.70;;